sensor_id;sensor_type;location;lat;lon;timestamp;P1;durP1;ratioP1;P2;durP2;ratioP2
55136;SDS011;41032;47.818;-3.732;2023-04-24T08:57:46;31.23;;;5.30;;
55136;SDS011;41032;47.818;-3.732;2023-04-24T09:00:19;48.13;;;7.75;;
55136;SDS011;41032;47.818;-3.732;2023-04-24T09:02:49;41.47;;;5.97;;
55136;SDS011;41032;47.818;-3.732;2023-04-24T09:05:19;33.28;;;6.22;;
55136;SDS011;41032;47.818;-3.732;2023-04-24T09:07:49;32.65;;;5.07;;
55136;SDS011;41032;47.818;-3.732;2023-04-24T09:10:21;32.10;;;6.18;;
55136;SDS011;41032;47.818;-3.732;2023-04-24T09:12:51;39.47;;;5.70;;
55136;SDS011;41032;47.818;-3.732;2023-04-24T09:15:20;28.60;;;5.68;;
55136;SDS011;41032;47.818;-3.732;2023-04-24T09:17:47;33.80;;;5.85;;
55136;SDS011;41032;47.818;-3.732;2023-04-24T09:20:15;23.60;;;4.80;;
55136;SDS011;41032;47.818;-3.732;2023-04-24T09:22:42;24.85;;;4.25;;
55136;SDS011;41032;47.818;-3.732;2023-04-24T09:25:12;22.23;;;5.35;;
55136;SDS011;41032;47.818;-3.732;2023-04-24T09:27:41;25.67;;;5.20;;
55136;SDS011;41032;47.818;-3.732;2023-04-24T09:30:10;28.02;;;4.55;;
55136;SDS011;41032;47.818;-3.732;2023-04-24T09:32:39;17.02;;;3.55;;
55136;SDS011;41032;47.818;-3.732;2023-04-24T09:35:12;19.48;;;3.92;;
55136;SDS011;41032;47.818;-3.732;2023-04-24T09:37:41;24.25;;;4.72;;
55136;SDS011;41032;47.818;-3.732;2023-04-24T09:40:12;15.70;;;4.15;;
55136;SDS011;41032;47.818;-3.732;2023-04-24T09:43:01;16.83;;;3.38;;
55136;SDS011;41032;47.818;-3.732;2023-04-24T09:45:28;16.02;;;3.72;;
55136;SDS011;41032;47.818;-3.732;2023-04-24T09:48:02;15.63;;;3.30;;
55136;SDS011;41032;47.818;-3.732;2023-04-24T09:50:32;18.02;;;3.20;;
55136;SDS011;41032;47.818;-3.732;2023-04-24T09:53:02;17.65;;;2.90;;
55136;SDS011;41032;47.818;-3.732;2023-04-24T09:55:35;10.98;;;2.92;;
55136;SDS011;41032;47.818;-3.732;2023-04-24T09:58:07;14.93;;;3.45;;
55136;SDS011;41032;47.818;-3.732;2023-04-24T10:00:34;22.45;;;2.88;;
55136;SDS011;41032;47.818;-3.732;2023-04-24T10:03:03;12.35;;;2.50;;
55136;SDS011;41032;47.818;-3.732;2023-04-24T10:05:32;11.05;;;2.65;;
55136;SDS011;41032;47.818;-3.732;2023-04-24T10:08:01;10.38;;;2.70;;
55136;SDS011;41032;47.818;-3.732;2023-04-24T10:10:31;16.27;;;3.25;;
55136;SDS011;41032;47.818;-3.732;2023-04-24T10:13:00;10.68;;;2.70;;
55136;SDS011;41032;47.818;-3.732;2023-04-24T10:15:28;13.95;;;3.70;;
55136;SDS011;41032;47.818;-3.732;2023-04-24T10:17:58;6.93;;;2.42;;
55136;SDS011;41032;47.818;-3.732;2023-04-24T10:20:27;11.23;;;2.70;;
55136;SDS011;41032;47.818;-3.732;2023-04-24T10:22:56;9.73;;;2.92;;
55136;SDS011;41032;47.818;-3.732;2023-04-24T10:25:27;12.85;;;3.25;;
55136;SDS011;41032;47.818;-3.732;2023-04-24T10:27:56;9.80;;;2.92;;
55136;SDS011;41032;47.818;-3.732;2023-04-24T10:30:26;13.63;;;3.55;;
55136;SDS011;41032;47.818;-3.732;2023-04-24T10:32:54;14.02;;;2.78;;
55136;SDS011;41032;47.818;-3.732;2023-04-24T10:35:22;9.75;;;2.50;;
55136;SDS011;41032;47.818;-3.732;2023-04-24T10:38:13;12.48;;;2.60;;
55136;SDS011;41032;47.818;-3.732;2023-04-24T10:40:39;10.73;;;2.85;;
55136;SDS011;41032;47.818;-3.732;2023-04-24T10:43:08;11.00;;;2.45;;
55136;SDS011;41032;47.818;-3.732;2023-04-24T10:45:37;9.40;;;2.70;;
55136;SDS011;41032;47.818;-3.732;2023-04-24T10:48:07;11.57;;;2.50;;
55136;SDS011;41032;47.818;-3.732;2023-04-24T10:51:00;10.93;;;2.30;;
55136;SDS011;41032;47.818;-3.732;2023-04-24T10:53:27;8.05;;;2.17;;
55136;SDS011;41032;47.818;-3.732;2023-04-24T10:55:58;7.22;;;2.13;;
55136;SDS011;41032;47.818;-3.732;2023-04-24T10:58:37;6.97;;;2.08;;
55136;SDS011;41032;47.818;-3.732;2023-04-24T11:01:09;7.68;;;2.10;;
55136;SDS011;41032;47.818;-3.732;2023-04-24T11:03:54;9.00;;;2.20;;
55136;SDS011;41032;47.818;-3.732;2023-04-24T11:06:33;15.52;;;2.55;;
55136;SDS011;41032;47.818;-3.732;2023-04-24T11:11:33;12.02;;;2.92;;
55136;SDS011;41032;47.818;-3.732;2023-04-24T11:14:03;8.70;;;2.03;;
55136;SDS011;41032;47.818;-3.732;2023-04-24T11:16:33;6.68;;;2.20;;
55136;SDS011;41032;47.818;-3.732;2023-04-24T11:19:07;9.43;;;2.42;;
55136;SDS011;41032;47.818;-3.732;2023-04-24T11:26:56;8.48;;;2.28;;
55136;SDS011;41032;47.818;-3.732;2023-04-24T11:29:48;7.40;;;2.08;;
55136;SDS011;41032;47.818;-3.732;2023-04-24T11:34:56;9.93;;;2.45;;
55136;SDS011;41032;47.818;-3.732;2023-04-24T11:37:27;8.93;;;2.75;;
55136;SDS011;41032;47.818;-3.732;2023-04-24T11:40:00;5.43;;;1.67;;
55136;SDS011;41032;47.818;-3.732;2023-04-24T11:42:33;9.25;;;2.22;;
55136;SDS011;41032;47.818;-3.732;2023-04-24T11:45:01;7.57;;;1.85;;
55136;SDS011;41032;47.818;-3.732;2023-04-24T11:47:35;7.78;;;1.85;;
55136;SDS011;41032;47.818;-3.732;2023-04-24T11:50:05;8.90;;;2.28;;
55136;SDS011;41032;47.818;-3.732;2023-04-24T11:52:37;6.05;;;1.75;;
55136;SDS011;41032;47.818;-3.732;2023-04-24T11:55:07;9.43;;;2.30;;
55136;SDS011;41032;47.818;-3.732;2023-04-24T11:57:51;6.10;;;1.77;;
55136;SDS011;41032;47.818;-3.732;2023-04-24T12:00:23;10.52;;;2.45;;
55136;SDS011;41032;47.818;-3.732;2023-04-24T12:03:13;9.13;;;2.13;;
55136;SDS011;41032;47.818;-3.732;2023-04-24T12:05:41;8.63;;;1.92;;
55136;SDS011;41032;47.818;-3.732;2023-04-24T12:08:10;6.28;;;2.30;;
55136;SDS011;41032;47.818;-3.732;2023-04-24T12:10:39;6.65;;;2.08;;
55136;SDS011;41032;47.818;-3.732;2023-04-24T12:13:09;5.40;;;1.80;;
55136;SDS011;41032;47.818;-3.732;2023-04-24T12:15:39;6.68;;;2.03;;
55136;SDS011;41032;47.818;-3.732;2023-04-24T12:18:08;6.85;;;1.75;;
55136;SDS011;41032;47.818;-3.732;2023-04-24T12:20:40;7.32;;;2.13;;
55136;SDS011;41032;47.818;-3.732;2023-04-24T12:23:08;7.90;;;2.35;;
55136;SDS011;41032;47.818;-3.732;2023-04-24T12:25:38;5.85;;;1.85;;
55136;SDS011;41032;47.818;-3.732;2023-04-24T12:30:41;9.55;;;2.45;;
55136;SDS011;41032;47.818;-3.732;2023-04-24T12:33:11;8.32;;;1.95;;
55136;SDS011;41032;47.818;-3.732;2023-04-24T12:35:40;7.88;;;1.85;;
55136;SDS011;41032;47.818;-3.732;2023-04-24T12:38:09;8.10;;;1.67;;
55136;SDS011;41032;47.818;-3.732;2023-04-24T12:40:39;7.28;;;2.50;;
55136;SDS011;41032;47.818;-3.732;2023-04-24T12:43:18;8.00;;;1.90;;
55136;SDS011;41032;47.818;-3.732;2023-04-24T12:45:47;8.50;;;1.80;;
55136;SDS011;41032;47.818;-3.732;2023-04-24T12:48:16;7.57;;;1.70;;
55136;SDS011;41032;47.818;-3.732;2023-04-24T12:50:46;6.55;;;2.10;;
55136;SDS011;41032;47.818;-3.732;2023-04-24T12:53:14;6.43;;;2.13;;
55136;SDS011;41032;47.818;-3.732;2023-04-24T12:55:43;11.35;;;2.08;;
55136;SDS011;41032;47.818;-3.732;2023-04-24T12:58:19;6.93;;;1.85;;
55136;SDS011;41032;47.818;-3.732;2023-04-24T13:00:47;7.13;;;1.98;;
55136;SDS011;41032;47.818;-3.732;2023-04-24T13:03:14;9.45;;;2.05;;
55136;SDS011;41032;47.818;-3.732;2023-04-24T13:05:42;8.60;;;2.08;;
55136;SDS011;41032;47.818;-3.732;2023-04-24T13:08:10;6.95;;;1.55;;
55136;SDS011;41032;47.818;-3.732;2023-04-24T13:10:38;7.25;;;2.25;;
55136;SDS011;41032;47.818;-3.732;2023-04-24T13:13:06;6.15;;;1.63;;
55136;SDS011;41032;47.818;-3.732;2023-04-24T13:15:34;8.88;;;1.55;;
55136;SDS011;41032;47.818;-3.732;2023-04-24T13:18:02;7.82;;;2.15;;
55136;SDS011;41032;47.818;-3.732;2023-04-24T13:20:29;5.88;;;2.00;;
55136;SDS011;41032;47.818;-3.732;2023-04-24T13:22:57;8.90;;;2.17;;
55136;SDS011;41032;47.818;-3.732;2023-04-24T13:25:25;9.75;;;2.20;;
55136;SDS011;41032;47.818;-3.732;2023-04-24T13:27:54;7.50;;;1.63;;
55136;SDS011;41032;47.818;-3.732;2023-04-24T13:30:22;6.00;;;2.10;;
55136;SDS011;41032;47.818;-3.732;2023-04-24T13:32:51;7.22;;;2.30;;
55136;SDS011;41032;47.818;-3.732;2023-04-24T13:35:19;6.05;;;1.65;;
55136;SDS011;41032;47.818;-3.732;2023-04-24T13:37:48;6.60;;;1.80;;
55136;SDS011;41032;47.818;-3.732;2023-04-24T13:40:16;7.20;;;1.73;;
55136;SDS011;41032;47.818;-3.732;2023-04-24T13:42:44;6.03;;;2.10;;
55136;SDS011;41032;47.818;-3.732;2023-04-24T13:45:11;4.20;;;1.52;;
55136;SDS011;41032;47.818;-3.732;2023-04-24T13:47:40;6.20;;;1.55;;
55136;SDS011;41032;47.818;-3.732;2023-04-24T13:50:10;5.40;;;1.63;;
55136;SDS011;41032;47.818;-3.732;2023-04-24T13:52:39;6.10;;;1.63;;
55136;SDS011;41032;47.818;-3.732;2023-04-24T13:55:07;8.43;;;2.38;;
55136;SDS011;41032;47.818;-3.732;2023-04-24T13:57:35;9.05;;;1.55;;
55136;SDS011;41032;47.818;-3.732;2023-04-24T14:00:03;8.40;;;1.60;;
55136;SDS011;41032;47.818;-3.732;2023-04-24T14:02:32;5.07;;;1.50;;
55136;SDS011;41032;47.818;-3.732;2023-04-24T14:04:59;5.38;;;1.67;;
55136;SDS011;41032;47.818;-3.732;2023-04-24T14:07:29;5.22;;;1.60;;
55136;SDS011;41032;47.818;-3.732;2023-04-24T14:09:57;9.40;;;2.15;;
55136;SDS011;41032;47.818;-3.732;2023-04-24T14:12:26;4.75;;;1.65;;
55136;SDS011;41032;47.818;-3.732;2023-04-24T14:14:54;4.63;;;1.40;;
55136;SDS011;41032;47.818;-3.732;2023-04-24T14:17:23;7.20;;;1.92;;
55136;SDS011;41032;47.818;-3.732;2023-04-24T14:19:51;7.30;;;1.48;;
55136;SDS011;41032;47.818;-3.732;2023-04-24T14:22:22;8.98;;;1.95;;
55136;SDS011;41032;47.818;-3.732;2023-04-24T14:24:50;5.72;;;1.35;;
55136;SDS011;41032;47.818;-3.732;2023-04-24T14:27:18;5.60;;;1.55;;
55136;SDS011;41032;47.818;-3.732;2023-04-24T14:29:46;6.03;;;1.98;;
55136;SDS011;41032;47.818;-3.732;2023-04-24T14:32:14;7.63;;;1.60;;
55136;SDS011;41032;47.818;-3.732;2023-04-24T14:34:43;4.90;;;1.83;;
55136;SDS011;41032;47.818;-3.732;2023-04-24T14:37:11;7.95;;;1.90;;
55136;SDS011;41032;47.818;-3.732;2023-04-24T14:39:39;8.18;;;1.80;;
55136;SDS011;41032;47.818;-3.732;2023-04-24T14:42:07;6.80;;;2.17;;
55136;SDS011;41032;47.818;-3.732;2023-04-24T14:44:36;9.27;;;1.92;;
55136;SDS011;41032;47.818;-3.732;2023-04-24T14:47:04;6.22;;;1.80;;
55136;SDS011;41032;47.818;-3.732;2023-04-24T14:49:32;7.40;;;2.03;;
55136;SDS011;41032;47.818;-3.732;2023-04-24T14:52:00;5.90;;;1.70;;
55136;SDS011;41032;47.818;-3.732;2023-04-24T14:54:28;7.03;;;2.10;;
55136;SDS011;41032;47.818;-3.732;2023-04-24T14:56:57;7.13;;;1.95;;
55136;SDS011;41032;47.818;-3.732;2023-04-24T14:59:27;7.30;;;1.70;;
55136;SDS011;41032;47.818;-3.732;2023-04-24T15:01:55;6.55;;;1.73;;
55136;SDS011;41032;47.818;-3.732;2023-04-24T15:04:24;4.50;;;2.03;;
55136;SDS011;41032;47.818;-3.732;2023-04-24T15:06:52;6.85;;;1.45;;
55136;SDS011;41032;47.818;-3.732;2023-04-24T15:09:21;9.93;;;1.75;;
55136;SDS011;41032;47.818;-3.732;2023-04-24T15:11:50;13.32;;;2.80;;
55136;SDS011;41032;47.818;-3.732;2023-04-24T15:14:17;22.30;;;2.70;;
55136;SDS011;41032;47.818;-3.732;2023-04-24T15:16:45;10.00;;;2.05;;
55136;SDS011;41032;47.818;-3.732;2023-04-24T15:19:14;12.00;;;2.47;;
55136;SDS011;41032;47.818;-3.732;2023-04-24T15:21:42;9.40;;;2.10;;
55136;SDS011;41032;47.818;-3.732;2023-04-24T15:24:11;10.25;;;2.20;;
55136;SDS011;41032;47.818;-3.732;2023-04-24T15:26:40;6.55;;;2.05;;
55136;SDS011;41032;47.818;-3.732;2023-04-24T15:29:08;5.15;;;1.70;;
55136;SDS011;41032;47.818;-3.732;2023-04-24T15:31:37;4.93;;;1.83;;
55136;SDS011;41032;47.818;-3.732;2023-04-24T15:34:06;7.25;;;1.65;;
55136;SDS011;41032;47.818;-3.732;2023-04-24T15:36:34;4.57;;;1.45;;
55136;SDS011;41032;47.818;-3.732;2023-04-24T15:39:03;9.95;;;1.55;;
55136;SDS011;41032;47.818;-3.732;2023-04-24T15:41:31;4.78;;;1.42;;
55136;SDS011;41032;47.818;-3.732;2023-04-24T15:43:59;6.68;;;1.45;;
55136;SDS011;41032;47.818;-3.732;2023-04-24T15:46:28;5.05;;;1.85;;
55136;SDS011;41032;47.818;-3.732;2023-04-24T15:48:56;5.35;;;1.27;;
55136;SDS011;41032;47.818;-3.732;2023-04-24T15:51:25;4.88;;;1.40;;
55136;SDS011;41032;47.818;-3.732;2023-04-24T15:53:54;8.20;;;1.65;;
55136;SDS011;41032;47.818;-3.732;2023-04-24T15:56:22;6.25;;;1.50;;
55136;SDS011;41032;47.818;-3.732;2023-04-24T15:58:51;3.83;;;1.80;;
55136;SDS011;41032;47.818;-3.732;2023-04-24T16:01:20;5.78;;;1.98;;
55136;SDS011;41032;47.818;-3.732;2023-04-24T16:03:48;6.97;;;1.75;;
55136;SDS011;41032;47.818;-3.732;2023-04-24T16:06:17;7.75;;;1.85;;
55136;SDS011;41032;47.818;-3.732;2023-04-24T16:08:46;7.38;;;1.73;;
55136;SDS011;41032;47.818;-3.732;2023-04-24T16:11:15;4.65;;;1.33;;
55136;SDS011;41032;47.818;-3.732;2023-04-24T16:13:43;5.38;;;1.40;;
55136;SDS011;41032;47.818;-3.732;2023-04-24T16:16:12;4.40;;;1.20;;
55136;SDS011;41032;47.818;-3.732;2023-04-24T16:18:41;6.60;;;2.17;;
55136;SDS011;41032;47.818;-3.732;2023-04-24T16:21:09;7.32;;;2.15;;
55136;SDS011;41032;47.818;-3.732;2023-04-24T16:23:38;7.22;;;1.80;;
55136;SDS011;41032;47.818;-3.732;2023-04-24T16:26:06;9.05;;;2.00;;
55136;SDS011;41032;47.818;-3.732;2023-04-24T16:28:34;3.90;;;1.60;;
55136;SDS011;41032;47.818;-3.732;2023-04-24T16:31:03;5.85;;;1.48;;
55136;SDS011;41032;47.818;-3.732;2023-04-24T16:33:31;5.15;;;1.50;;
55136;SDS011;41032;47.818;-3.732;2023-04-24T16:36:00;7.10;;;1.92;;
55136;SDS011;41032;47.818;-3.732;2023-04-24T16:38:29;6.18;;;1.60;;
55136;SDS011;41032;47.818;-3.732;2023-04-24T16:40:57;7.15;;;1.77;;
55136;SDS011;41032;47.818;-3.732;2023-04-24T16:43:25;6.35;;;1.40;;
55136;SDS011;41032;47.818;-3.732;2023-04-24T16:45:54;6.57;;;1.67;;
55136;SDS011;41032;47.818;-3.732;2023-04-24T16:48:22;3.85;;;1.30;;
55136;SDS011;41032;47.818;-3.732;2023-04-24T16:50:51;4.68;;;1.50;;
55136;SDS011;41032;47.818;-3.732;2023-04-24T16:53:20;3.75;;;1.25;;
55136;SDS011;41032;47.818;-3.732;2023-04-24T16:55:48;5.72;;;1.52;;
55136;SDS011;41032;47.818;-3.732;2023-04-24T16:58:17;5.82;;;2.13;;
55136;SDS011;41032;47.818;-3.732;2023-04-24T17:00:45;7.03;;;2.03;;
55136;SDS011;41032;47.818;-3.732;2023-04-24T17:03:13;4.22;;;1.55;;
55136;SDS011;41032;47.818;-3.732;2023-04-24T17:05:42;7.30;;;1.67;;
55136;SDS011;41032;47.818;-3.732;2023-04-24T17:08:10;4.38;;;1.35;;
55136;SDS011;41032;47.818;-3.732;2023-04-24T17:10:39;5.68;;;1.50;;
55136;SDS011;41032;47.818;-3.732;2023-04-24T17:13:08;4.20;;;1.58;;
55136;SDS011;41032;47.818;-3.732;2023-04-24T17:15:36;5.18;;;1.58;;
55136;SDS011;41032;47.818;-3.732;2023-04-24T17:18:05;6.00;;;1.65;;
55136;SDS011;41032;47.818;-3.732;2023-04-24T17:20:33;7.70;;;1.80;;
55136;SDS011;41032;47.818;-3.732;2023-04-24T17:23:02;4.97;;;1.40;;
55136;SDS011;41032;47.818;-3.732;2023-04-24T17:25:30;6.43;;;1.60;;
55136;SDS011;41032;47.818;-3.732;2023-04-24T17:28:00;6.20;;;1.77;;
55136;SDS011;41032;47.818;-3.732;2023-04-24T17:30:28;8.93;;;1.40;;
55136;SDS011;41032;47.818;-3.732;2023-04-24T17:32:56;7.70;;;2.10;;
55136;SDS011;41032;47.818;-3.732;2023-04-24T17:35:25;8.38;;;3.15;;
55136;SDS011;41032;47.818;-3.732;2023-04-24T17:37:55;15.60;;;7.25;;
55136;SDS011;41032;47.818;-3.732;2023-04-24T17:40:23;18.48;;;9.52;;
55136;SDS011;41032;47.818;-3.732;2023-04-24T17:42:52;38.08;;;21.73;;
55136;SDS011;41032;47.818;-3.732;2023-04-24T17:45:21;29.73;;;16.17;;
55136;SDS011;41032;47.818;-3.732;2023-04-24T17:47:50;43.13;;;23.02;;
55136;SDS011;41032;47.818;-3.732;2023-04-24T17:50:19;47.15;;;25.63;;
55136;SDS011;41032;47.818;-3.732;2023-04-24T17:52:47;54.30;;;26.02;;
55136;SDS011;41032;47.818;-3.732;2023-04-24T17:55:17;49.08;;;24.65;;
55136;SDS011;41032;47.818;-3.732;2023-04-24T17:57:44;57.55;;;27.08;;
55136;SDS011;41032;47.818;-3.732;2023-04-24T18:00:13;57.72;;;25.10;;
55136;SDS011;41032;47.818;-3.732;2023-04-24T18:02:42;55.97;;;21.77;;
55136;SDS011;41032;47.818;-3.732;2023-04-24T18:05:11;51.70;;;21.48;;
55136;SDS011;41032;47.818;-3.732;2023-04-24T18:07:40;52.45;;;22.17;;
55136;SDS011;41032;47.818;-3.732;2023-04-24T18:10:09;45.72;;;19.33;;
55136;SDS011;41032;47.818;-3.732;2023-04-24T18:12:37;43.78;;;17.98;;
55136;SDS011;41032;47.818;-3.732;2023-04-24T18:15:06;41.45;;;17.27;;
55136;SDS011;41032;47.818;-3.732;2023-04-24T18:17:35;36.85;;;15.68;;
55136;SDS011;41032;47.818;-3.732;2023-04-24T18:20:04;30.45;;;13.07;;
55136;SDS011;41032;47.818;-3.732;2023-04-24T18:22:33;31.75;;;12.45;;
55136;SDS011;41032;47.818;-3.732;2023-04-24T18:25:02;30.67;;;12.55;;
55136;SDS011;41032;47.818;-3.732;2023-04-24T18:27:31;29.33;;;11.50;;
55136;SDS011;41032;47.818;-3.732;2023-04-24T18:30:00;34.20;;;12.18;;
55136;SDS011;41032;47.818;-3.732;2023-04-24T18:32:30;44.05;;;23.92;;
55136;SDS011;41032;47.818;-3.732;2023-04-24T18:34:59;74.15;;;44.92;;
55136;SDS011;41032;47.818;-3.732;2023-04-24T18:37:28;115.00;;;73.00;;
55136;SDS011;41032;47.818;-3.732;2023-04-24T18:39:59;158.25;;;99.95;;
55136;SDS011;41032;47.818;-3.732;2023-04-24T18:42:27;127.57;;;81.38;;
55136;SDS011;41032;47.818;-3.732;2023-04-24T18:44:56;152.38;;;103.70;;
55136;SDS011;41032;47.818;-3.732;2023-04-24T18:47:27;152.20;;;102.03;;
55136;SDS011;41032;47.818;-3.732;2023-04-24T18:49:55;148.93;;;98.80;;
55136;SDS011;41032;47.818;-3.732;2023-04-24T18:52:24;135.02;;;89.70;;
55136;SDS011;41032;47.818;-3.732;2023-04-24T18:54:52;122.78;;;86.25;;
55136;SDS011;41032;47.818;-3.732;2023-04-24T18:57:21;116.45;;;78.53;;
55136;SDS011;41032;47.818;-3.732;2023-04-24T18:59:49;102.20;;;72.50;;
55136;SDS011;41032;47.818;-3.732;2023-04-24T19:02:19;98.05;;;70.93;;
55136;SDS011;41032;47.818;-3.732;2023-04-24T19:04:47;93.65;;;68.50;;
55136;SDS011;41032;47.818;-3.732;2023-04-24T19:07:16;90.55;;;68.65;;
55136;SDS011;41032;47.818;-3.732;2023-04-24T19:09:44;80.88;;;60.78;;
55136;SDS011;41032;47.818;-3.732;2023-04-24T19:12:13;82.07;;;63.80;;
55136;SDS011;41032;47.818;-3.732;2023-04-24T19:14:42;84.00;;;63.08;;
55136;SDS011;41032;47.818;-3.732;2023-04-24T19:17:11;87.38;;;66.45;;
55136;SDS011;41032;47.818;-3.732;2023-04-24T19:19:43;85.93;;;72.28;;
55136;SDS011;41032;47.818;-3.732;2023-04-24T19:22:11;91.93;;;75.35;;
55136;SDS011;41032;47.818;-3.732;2023-04-24T19:24:40;83.55;;;72.68;;
55136;SDS011;41032;47.818;-3.732;2023-04-24T19:27:08;82.38;;;68.25;;
